createdAt,value
2022-12-16T00:01:14.046Z,46.45
2022-12-16T00:03:44.865Z,50.88
2022-12-16T00:06:12.249Z,44.10
2022-12-16T00:08:40.259Z,45.08
2022-12-16T00:11:10.579Z,47.78
2022-12-16T00:13:40.402Z,45.60
2022-12-16T00:16:16.346Z,45.58
2022-12-16T00:18:45.528Z,41.33
2022-12-16T00:21:15.507Z,39.22
2022-12-16T00:23:45.253Z,42.45
2022-12-16T00:26:13.518Z,44.65
2022-12-16T00:28:40.882Z,42.30
2022-12-16T00:31:08.191Z,45.08
2022-12-16T00:33:35.939Z,39.38
2022-12-16T00:36:05.954Z,47.65
2022-12-16T00:38:33.295Z,48.85
2022-12-16T00:41:00.854Z,52.13
2022-12-16T00:43:28.103Z,47.20
2022-12-16T00:45:55.499Z,47.35
2022-12-16T00:48:23.238Z,48.38
2022-12-16T00:50:55.091Z,48.88
2022-12-16T00:53:24.155Z,53.38
2022-12-16T00:55:54.815Z,40.63
2022-12-16T00:58:22.196Z,47.45
2022-12-16T01:00:51.823Z,44.97
2022-12-16T01:03:33.376Z,48.00
2022-12-16T01:06:03.272Z,43.72
2022-12-16T01:08:32.632Z,48.88
2022-12-16T01:11:00.122Z,45.30
2022-12-16T01:13:27.455Z,44.13
2022-12-16T01:15:54.755Z,40.90
2022-12-16T01:18:24.440Z,41.80
2022-12-16T01:20:51.767Z,47.00
2022-12-16T01:23:19.064Z,39.28
2022-12-16T01:25:52.418Z,43.60
2022-12-16T01:30:49.128Z,48.05
2022-12-16T01:33:17.424Z,44.45
2022-12-16T01:35:55.192Z,49.08
2022-12-16T01:38:33.459Z,50.60
2022-12-16T01:41:01.385Z,43.83
2022-12-16T01:43:32.577Z,41.67
2022-12-16T01:46:12.036Z,48.40
2022-12-16T01:48:54.245Z,43.30
2022-12-16T01:51:50.488Z,46.03
2022-12-16T01:54:24.990Z,41.20
2022-12-16T01:57:03.007Z,39.72
2022-12-16T01:59:31.748Z,42.83
2022-12-16T02:01:59.590Z,42.63
2022-12-16T02:04:27.035Z,46.35
2022-12-16T02:06:54.721Z,37.60
2022-12-16T02:09:22.304Z,41.25
2022-12-16T02:11:57.766Z,45.58
2022-12-16T02:14:39.795Z,41.78
2022-12-16T02:17:24.284Z,39.35
2022-12-16T02:20:00.500Z,41.30
2022-12-16T02:22:53.236Z,44.08
2022-12-16T02:25:55.426Z,42.35
2022-12-16T02:28:34.634Z,48.92
2022-12-16T02:31:12.571Z,45.05
2022-12-16T02:34:01.401Z,45.80
2022-12-16T02:36:55.364Z,50.95
2022-12-16T02:39:29.815Z,43.70
2022-12-16T02:42:02.106Z,39.70
2022-12-16T02:45:11.104Z,42.70
2022-12-16T02:47:39.674Z,43.47
2022-12-16T02:50:21.504Z,43.08
2022-12-16T02:52:52.542Z,42.30
2022-12-16T02:55:29.467Z,42.58
2022-12-16T02:58:15.462Z,41.95
2022-12-16T03:01:07.756Z,46.67
2022-12-16T03:03:47.608Z,39.60
2022-12-16T03:06:17.172Z,44.70
2022-12-16T03:08:52.752Z,39.05
2022-12-16T03:11:20.473Z,39.28
2022-12-16T03:13:53.285Z,47.60
2022-12-16T03:16:26.179Z,39.38
2022-12-16T03:18:58.859Z,40.08
2022-12-16T03:21:30.124Z,44.53
2022-12-16T03:24:10.163Z,45.75
2022-12-16T03:26:44.770Z,43.60
2022-12-16T03:29:16.397Z,43.15
2022-12-16T03:32:00.899Z,46.58
2022-12-16T03:34:36.693Z,41.05
2022-12-16T03:37:07.563Z,36.38
2022-12-16T03:39:42.416Z,43.10
2022-12-16T03:42:11.544Z,43.40
2022-12-16T03:44:39.473Z,41.30
2022-12-16T03:47:06.797Z,44.33
2022-12-16T03:49:34.066Z,40.90
2022-12-16T03:52:03.498Z,38.45
2022-12-16T03:54:33.039Z,46.88
2022-12-16T03:57:01.393Z,42.03
2022-12-16T03:59:28.911Z,44.00
2022-12-16T04:01:58.436Z,40.47
2022-12-16T04:04:25.966Z,40.10
2022-12-16T04:07:13.133Z,46.03
2022-12-16T04:09:40.403Z,36.40
2022-12-16T04:12:27.994Z,40.42
2022-12-16T04:15:13.781Z,38.25
2022-12-16T04:17:59.962Z,36.10
2022-12-16T04:20:55.022Z,38.53
2022-12-16T04:23:46.319Z,39.53
2022-12-16T04:26:13.741Z,43.03
2022-12-16T04:28:41.032Z,47.72
2022-12-16T04:31:10.751Z,41.70
2022-12-16T04:33:57.269Z,45.97
2022-12-16T04:36:43.125Z,40.42
2022-12-16T04:39:28.995Z,45.90
2022-12-16T04:42:14.779Z,44.05
2022-12-16T04:45:01.077Z,42.22
2022-12-16T04:47:52.727Z,39.95
2022-12-16T04:50:40.068Z,46.42
2022-12-16T04:53:25.972Z,43.28
2022-12-16T04:56:11.994Z,44.28
2022-12-16T04:58:57.795Z,47.33
2022-12-16T05:01:43.540Z,43.47
2022-12-16T05:04:40.269Z,46.30
2022-12-16T05:07:26.288Z,43.55
2022-12-16T05:10:14.183Z,40.60
2022-12-16T05:12:59.899Z,42.85
2022-12-16T05:15:45.977Z,47.08
2022-12-16T05:18:33.900Z,42.47
2022-12-16T05:21:21.102Z,53.03
2022-12-16T05:24:09.259Z,40.60
2022-12-16T05:26:54.994Z,47.85
2022-12-16T05:29:40.777Z,45.47
2022-12-16T05:32:29.029Z,42.35
2022-12-16T05:35:14.878Z,45.70
2022-12-16T05:38:00.452Z,48.00
2022-12-16T05:40:46.479Z,46.22
2022-12-16T05:43:32.419Z,40.08
2022-12-16T05:46:18.614Z,36.60
2022-12-16T05:49:04.745Z,41.47
2022-12-16T05:51:50.738Z,46.08
2022-12-16T05:54:36.803Z,47.60
2022-12-16T05:57:22.673Z,41.50
2022-12-16T06:00:08.720Z,36.75
2022-12-16T06:02:57.073Z,41.08
2022-12-16T06:05:43.670Z,40.13
2022-12-16T06:08:30.498Z,36.67
2022-12-16T06:11:20.698Z,41.00
2022-12-16T06:14:07.148Z,30.70
2022-12-16T06:16:53.775Z,41.90
2022-12-16T06:19:44.225Z,35.42
2022-12-16T06:22:34.019Z,39.95
2022-12-16T06:25:24.268Z,40.70
2022-12-16T06:28:13.491Z,43.20
2022-12-16T06:31:01.246Z,47.70
2022-12-16T06:33:54.786Z,36.97
2022-12-16T06:39:31.335Z,39.55
2022-12-16T06:42:18.055Z,39.30
2022-12-16T06:45:04.052Z,39.70
2022-12-16T06:47:51.637Z,40.90
2022-12-16T06:50:42.967Z,40.90
2022-12-16T06:53:31.908Z,40.08
2022-12-16T06:56:19.000Z,35.08
2022-12-16T06:59:05.240Z,34.30
2022-12-16T07:01:51.633Z,37.58
2022-12-16T07:04:38.738Z,36.22
2022-12-16T07:07:25.303Z,32.58
2022-12-16T07:10:12.622Z,34.00
2022-12-16T07:13:02.637Z,32.33
2022-12-16T07:15:49.138Z,31.92
2022-12-16T07:18:34.935Z,31.25
2022-12-16T07:21:24.430Z,32.50
2022-12-16T07:24:10.266Z,34.70
2022-12-16T07:26:56.006Z,32.40
2022-12-16T07:29:41.960Z,30.50
2022-12-16T07:32:27.676Z,33.80
2022-12-16T07:35:16.190Z,34.13
2022-12-16T07:38:01.870Z,31.33
2022-12-16T07:40:47.759Z,32.90
2022-12-16T07:43:33.932Z,32.35
2022-12-16T07:46:20.347Z,29.90
2022-12-16T07:49:06.480Z,35.72
2022-12-16T07:51:52.210Z,34.85
2022-12-16T07:54:38.764Z,37.47
2022-12-16T07:57:24.353Z,32.92
2022-12-16T08:00:10.225Z,33.80
2022-12-16T08:02:56.095Z,35.55
2022-12-16T08:05:42.074Z,31.73
2022-12-16T08:08:27.663Z,30.27
2022-12-16T08:11:13.566Z,31.75
2022-12-16T08:14:01.415Z,35.40
2022-12-16T08:16:49.590Z,29.38
2022-12-16T08:19:35.617Z,31.85
2022-12-16T08:22:21.322Z,32.50
2022-12-16T08:25:07.313Z,33.70
2022-12-16T08:27:53.120Z,29.42
2022-12-16T08:30:38.772Z,37.28
2022-12-16T08:33:24.452Z,32.13
2022-12-16T08:36:10.427Z,28.13
2022-12-16T08:38:56.216Z,31.08
2022-12-16T08:41:41.929Z,28.65
2022-12-16T08:44:29.877Z,29.30
2022-12-16T08:47:15.481Z,34.47
2022-12-16T08:50:02.131Z,29.30
2022-12-16T08:52:49.485Z,29.13
2022-12-16T08:55:37.329Z,26.65
2022-12-16T08:58:25.451Z,35.17
2022-12-16T09:01:11.398Z,31.30
2022-12-16T09:03:57.108Z,36.83
2022-12-16T09:06:45.351Z,33.13
2022-12-16T09:09:31.351Z,30.92
2022-12-16T09:12:16.929Z,32.70
2022-12-16T09:15:19.576Z,34.47
2022-12-16T09:18:11.443Z,33.92
2022-12-16T09:20:57.473Z,32.13
2022-12-16T09:23:43.417Z,31.45
2022-12-16T09:26:29.364Z,33.72
2022-12-16T09:29:15.308Z,35.85
2022-12-16T09:32:03.546Z,30.92
2022-12-16T09:34:49.519Z,29.80
2022-12-16T09:37:35.228Z,32.78
2022-12-16T09:40:21.626Z,30.33
2022-12-16T09:43:46.321Z,31.45
2022-12-16T09:47:00.014Z,30.88
2022-12-16T09:50:03.910Z,29.67
2022-12-16T09:53:13.024Z,30.88
2022-12-16T09:56:01.361Z,31.33
2022-12-16T09:58:57.686Z,29.88
2022-12-16T10:01:45.110Z,25.08
2022-12-16T10:04:31.168Z,35.05
2022-12-16T10:07:18.922Z,30.70
2022-12-16T10:10:19.635Z,27.92
2022-12-16T10:13:20.944Z,28.25
2022-12-16T10:16:17.119Z,19.48
2022-12-16T10:19:08.657Z,24.02
2022-12-16T10:22:10.294Z,21.42
2022-12-16T10:25:07.869Z,19.75
2022-12-16T10:28:06.237Z,19.88
2022-12-16T10:30:56.747Z,22.20
2022-12-16T10:33:47.521Z,19.50
2022-12-16T10:36:38.744Z,23.55
2022-12-16T10:39:49.797Z,24.63
2022-12-16T10:42:46.173Z,23.33
2022-12-16T10:45:44.474Z,21.08
2022-12-16T10:48:50.064Z,27.30
2022-12-16T10:51:43.435Z,22.17
2022-12-16T10:54:50.736Z,28.10
2022-12-16T10:57:51.545Z,25.08
2022-12-16T11:00:40.025Z,21.92
2022-12-16T11:03:43.442Z,21.52
2022-12-16T11:06:31.789Z,19.63
2022-12-16T11:09:39.092Z,22.70
2022-12-16T11:12:49.657Z,23.02
2022-12-16T11:15:50.243Z,26.83
2022-12-16T11:18:39.873Z,26.65
2022-12-16T11:21:36.847Z,28.60
2022-12-16T11:24:28.502Z,24.83
2022-12-16T11:27:21.751Z,26.80
2022-12-16T11:30:17.304Z,30.43
2022-12-16T11:33:15.843Z,26.85
2022-12-16T11:36:06.777Z,22.27
2022-12-16T11:39:02.422Z,24.75
2022-12-16T11:41:57.896Z,25.58
2022-12-16T11:44:58.022Z,21.90
2022-12-16T11:48:02.070Z,22.77
2022-12-16T11:50:51.383Z,21.92
2022-12-16T11:53:49.171Z,26.63
2022-12-16T11:56:41.346Z,23.65
2022-12-16T11:59:57.040Z,22.42
2022-12-16T12:03:22.937Z,22.63
2022-12-16T12:06:12.043Z,26.63
2022-12-16T12:09:18.989Z,26.02
2022-12-16T12:12:17.360Z,24.40
2022-12-16T12:15:05.887Z,22.35
2022-12-16T12:18:05.083Z,20.95
2022-12-16T12:21:07.249Z,25.95
2022-12-16T12:24:14.378Z,21.48
2022-12-16T12:27:16.309Z,22.33
2022-12-16T12:30:19.650Z,23.65
2022-12-16T12:33:39.611Z,24.08
2022-12-16T12:36:38.259Z,24.25
2022-12-16T12:39:56.845Z,21.40
2022-12-16T12:43:04.441Z,20.38
2022-12-16T12:46:17.940Z,22.55
2022-12-16T12:49:19.624Z,24.63
2022-12-16T12:52:20.395Z,21.00
2022-12-16T12:55:33.026Z,21.75
2022-12-16T12:58:20.243Z,18.48
2022-12-16T13:01:10.648Z,21.45
2022-12-16T13:04:25.481Z,23.80
2022-12-16T13:07:15.376Z,24.65
2022-12-16T13:10:01.102Z,22.38
2022-12-16T13:12:52.390Z,23.85
2022-12-16T13:15:58.028Z,25.02
2022-12-16T13:18:43.765Z,21.90
2022-12-16T13:21:54.755Z,23.65
2022-12-16T13:24:45.749Z,21.38
2022-12-16T13:27:35.655Z,17.95
2022-12-16T13:30:33.478Z,17.48
2022-12-16T13:33:40.086Z,15.48
2022-12-16T13:36:26.985Z,19.63
2022-12-16T13:39:16.051Z,15.43
2022-12-16T13:42:01.914Z,15.82
2022-12-16T13:45:02.809Z,15.57
2022-12-16T13:48:00.716Z,18.15
2022-12-16T13:50:58.586Z,17.65
2022-12-16T13:53:56.044Z,23.88
2022-12-16T13:56:52.376Z,20.23
2022-12-16T13:59:42.029Z,18.05
2022-12-16T14:02:54.438Z,17.40
2022-12-16T14:05:48.273Z,20.52
2022-12-16T14:08:48.134Z,19.05
2022-12-16T14:12:11.858Z,12.68
2022-12-16T14:15:05.717Z,16.38
2022-12-16T14:18:19.624Z,17.17
2022-12-16T14:21:14.203Z,16.52
2022-12-16T14:24:26.908Z,16.00
2022-12-16T14:27:14.311Z,18.08
2022-12-16T14:30:02.451Z,18.15
2022-12-16T14:32:49.622Z,14.10
2022-12-16T14:35:38.218Z,18.25
2022-12-16T14:38:47.813Z,27.23
2022-12-16T14:41:42.689Z,22.65
2022-12-16T14:44:56.421Z,30.58
2022-12-16T14:47:43.102Z,27.73
2022-12-16T14:50:54.738Z,25.80
2022-12-16T14:53:42.453Z,26.95
2022-12-16T14:56:32.624Z,42.47
2022-12-16T14:59:28.425Z,41.63
2022-12-16T15:02:18.889Z,38.30
2022-12-16T15:05:05.267Z,40.25
2022-12-16T15:07:57.950Z,44.42
2022-12-16T15:10:46.871Z,43.60
2022-12-16T15:13:36.554Z,35.88
2022-12-16T15:16:25.984Z,40.13
2022-12-16T15:19:19.324Z,30.83
2022-12-16T15:22:06.106Z,32.67
2022-12-16T15:24:57.153Z,32.13
2022-12-16T15:27:54.328Z,26.05
2022-12-16T15:31:21.178Z,23.05
2022-12-16T15:34:09.275Z,20.83
2022-12-16T15:36:55.629Z,18.90
2022-12-16T15:39:48.024Z,22.35
2022-12-16T15:42:46.740Z,24.00
2022-12-16T15:45:51.722Z,21.20
2022-12-16T15:48:53.096Z,30.65
2022-12-16T15:51:43.340Z,23.58
2022-12-16T15:54:39.879Z,31.85
2022-12-16T15:57:51.276Z,20.35
2022-12-16T16:00:49.089Z,25.52
2022-12-16T16:03:47.447Z,30.48
2022-12-16T16:06:34.985Z,27.17
2022-12-16T16:09:46.804Z,23.23
2022-12-16T16:12:36.214Z,28.15
2022-12-16T16:15:25.143Z,25.15
2022-12-16T16:18:20.129Z,26.17
2022-12-16T16:21:07.697Z,27.90
2022-12-16T16:23:56.708Z,27.92
2022-12-16T16:26:44.296Z,28.55
2022-12-16T16:29:30.292Z,21.90
2022-12-16T16:32:17.929Z,24.50
2022-12-16T16:35:10.143Z,26.25
2022-12-16T16:37:56.351Z,24.48
2022-12-16T16:40:57.537Z,26.10
2022-12-16T16:43:51.070Z,33.10
2022-12-16T16:46:58.792Z,33.10
2022-12-16T16:49:57.856Z,26.23
2022-12-16T16:52:47.149Z,30.55
2022-12-16T16:55:44.230Z,32.13
2022-12-16T16:58:35.339Z,36.50
2022-12-16T17:01:22.603Z,26.42
2022-12-16T17:04:10.289Z,32.05
2022-12-16T17:06:56.900Z,29.52
2022-12-16T17:09:46.532Z,27.17
2022-12-16T17:12:39.865Z,26.65
2022-12-16T17:15:41.058Z,30.23
2022-12-16T17:18:28.293Z,32.42
2022-12-16T17:21:16.947Z,24.35
2022-12-16T17:24:03.087Z,30.20
2022-12-16T17:26:52.995Z,27.65
2022-12-16T17:29:45.108Z,26.83
2022-12-16T17:32:31.739Z,27.95
2022-12-16T17:35:19.534Z,29.80
2022-12-16T17:38:13.656Z,27.98
2022-12-16T17:41:02.309Z,26.45
2022-12-16T17:43:48.373Z,36.88
2022-12-16T17:46:34.676Z,40.47
2022-12-16T17:49:27.550Z,42.08
2022-12-16T17:52:14.787Z,30.70
2022-12-16T17:55:01.331Z,29.70
2022-12-16T17:57:48.384Z,37.35
2022-12-16T18:00:36.477Z,30.77
2022-12-16T18:03:25.960Z,29.08
2022-12-16T18:06:16.619Z,36.95
2022-12-16T18:09:03.575Z,38.20
2022-12-16T18:11:51.054Z,36.25
2022-12-16T18:14:46.018Z,35.72
2022-12-16T18:17:33.184Z,35.78
2022-12-16T18:20:20.309Z,34.17
2022-12-16T18:23:06.646Z,41.03
2022-12-16T18:25:56.529Z,34.95
2022-12-16T18:28:43.069Z,30.55
2022-12-16T18:31:32.008Z,28.30
2022-12-16T18:34:19.174Z,28.42
2022-12-16T18:37:06.537Z,28.77
2022-12-16T18:39:54.085Z,28.88
2022-12-16T18:42:42.065Z,35.45
2022-12-16T18:45:29.805Z,34.75
2022-12-16T18:48:16.919Z,37.50
2022-12-16T18:51:16.521Z,34.80
2022-12-16T18:54:09.257Z,34.35
2022-12-16T18:56:55.649Z,36.97
2022-12-16T18:59:44.034Z,33.88
2022-12-16T19:02:33.405Z,34.10
2022-12-16T19:05:22.436Z,35.20
2022-12-16T19:08:14.155Z,34.08
2022-12-16T19:11:02.753Z,34.47
2022-12-16T19:13:49.588Z,35.10
2022-12-16T19:16:36.261Z,32.20
2022-12-16T19:19:23.448Z,31.83
2022-12-16T19:22:10.185Z,33.47
2022-12-16T19:24:56.610Z,35.40
2022-12-16T19:27:46.265Z,31.58
2022-12-16T19:30:32.900Z,34.58
2022-12-16T19:33:20.416Z,35.60
2022-12-16T19:36:09.177Z,33.67
2022-12-16T19:38:57.257Z,33.17
2022-12-16T19:41:44.502Z,34.40
2022-12-16T19:44:31.015Z,31.85
2022-12-16T19:47:17.243Z,28.65
2022-12-16T19:50:04.411Z,34.10
2022-12-16T19:52:53.112Z,36.13
2022-12-16T19:55:45.733Z,31.23
2022-12-16T19:58:37.377Z,31.92
2022-12-16T20:01:28.000Z,34.63
2022-12-16T20:04:15.592Z,32.88
2022-12-16T20:07:05.787Z,35.67
2022-12-16T20:09:52.359Z,29.25
2022-12-16T20:12:42.060Z,34.08
2022-12-16T20:15:28.784Z,31.98
2022-12-16T20:18:17.135Z,35.85
2022-12-16T20:21:07.845Z,29.52
2022-12-16T20:23:54.593Z,36.05
2022-12-16T20:26:43.329Z,34.97
2022-12-16T20:29:35.016Z,37.28
2022-12-16T20:32:24.246Z,35.15
2022-12-16T20:35:13.638Z,32.67
2022-12-16T20:37:59.999Z,37.00
2022-12-16T20:40:46.221Z,35.42
2022-12-16T20:43:32.772Z,37.13
2022-12-16T20:46:19.246Z,39.85
2022-12-16T20:49:05.484Z,42.80
2022-12-16T20:51:56.283Z,34.92
2022-12-16T20:54:47.747Z,37.53
2022-12-16T20:57:33.966Z,35.40
2022-12-16T21:00:20.025Z,38.17
2022-12-16T21:03:06.285Z,37.50
2022-12-16T21:05:53.331Z,33.55
2022-12-16T21:08:42.774Z,36.80
2022-12-16T21:11:29.487Z,32.72
2022-12-16T21:14:16.343Z,35.28
2022-12-16T21:17:02.463Z,32.03
2022-12-16T21:19:48.454Z,30.63
2022-12-16T21:22:37.031Z,34.45
2022-12-16T21:25:24.965Z,37.55
2022-12-16T21:28:16.394Z,30.70
2022-12-16T21:31:05.511Z,28.90
2022-12-16T21:33:52.390Z,29.90
2022-12-16T21:36:38.503Z,35.58
2022-12-16T21:39:25.857Z,44.35
2022-12-16T21:42:12.329Z,43.63
2022-12-16T21:45:02.636Z,45.85
2022-12-16T21:47:49.864Z,42.85
2022-12-16T21:50:35.825Z,45.72
2022-12-16T21:53:21.818Z,44.63
2022-12-16T21:56:14.725Z,50.65
2022-12-16T21:59:04.835Z,64.80
2022-12-16T22:04:29.709Z,47.55
2022-12-16T22:07:16.218Z,59.78
2022-12-16T22:10:05.994Z,45.72
2022-12-16T22:12:56.195Z,45.38
2022-12-16T22:15:46.479Z,48.25
2022-12-16T22:18:35.102Z,47.08
2022-12-16T22:21:25.577Z,40.05
2022-12-16T22:24:13.581Z,45.85
2022-12-16T22:27:01.172Z,45.72
2022-12-16T22:29:55.207Z,41.25
2022-12-16T22:32:47.757Z,39.67
2022-12-16T22:35:34.102Z,45.60
2022-12-16T22:38:20.183Z,41.70
2022-12-16T22:41:20.011Z,42.22
2022-12-16T22:44:07.489Z,36.55
2022-12-16T22:46:56.215Z,40.75
2022-12-16T22:49:42.236Z,39.10
2022-12-16T22:52:28.263Z,37.92
2022-12-16T22:55:17.478Z,40.80
2022-12-16T22:58:05.055Z,42.60
2022-12-16T23:00:52.147Z,34.85
2022-12-16T23:03:39.093Z,37.97
2022-12-16T23:06:29.596Z,43.47
2022-12-16T23:09:28.207Z,39.40
2022-12-16T23:12:15.877Z,40.78
2022-12-16T23:15:03.748Z,37.75
2022-12-16T23:18:04.791Z,43.75
2022-12-16T23:20:52.641Z,39.83
2022-12-16T23:23:46.616Z,43.83
2022-12-16T23:26:40.947Z,41.67
2022-12-16T23:29:27.752Z,45.88
2022-12-16T23:32:13.698Z,40.97
2022-12-16T23:35:01.707Z,38.15
2022-12-16T23:37:56.484Z,39.35
2022-12-16T23:40:43.325Z,42.97
2022-12-16T23:43:30.370Z,44.83
2022-12-16T23:46:17.681Z,44.63
2022-12-16T23:49:06.131Z,47.35
2022-12-16T23:51:53.027Z,44.65
2022-12-16T23:54:40.590Z,45.63
2022-12-16T23:57:27.097Z,48.78
